sensor_id;sensor_type;location;lat;lon;timestamp;P1;durP1;ratioP1;P2;durP2;ratioP2
75787;SDS011;64406;50.024;14.492;2023-03-12T00:01:35;14.77;;;5.57;;
75787;SDS011;64406;50.024;14.492;2023-03-12T00:04:02;8.03;;;4.67;;
75787;SDS011;64406;50.024;14.492;2023-03-12T00:06:28;9.97;;;5.33;;
75787;SDS011;64406;50.024;14.492;2023-03-12T00:08:54;9.43;;;5.63;;
75787;SDS011;64406;50.024;14.492;2023-03-12T00:11:19;12.43;;;6.17;;
75787;SDS011;64406;50.024;14.492;2023-03-12T00:13:53;8.83;;;4.83;;
75787;SDS011;64406;50.024;14.492;2023-03-12T00:16:20;10.53;;;5.30;;
75787;SDS011;64406;50.024;14.492;2023-03-12T00:18:49;7.60;;;4.77;;
75787;SDS011;64406;50.024;14.492;2023-03-12T00:21:17;11.93;;;5.33;;
75787;SDS011;64406;50.024;14.492;2023-03-12T00:23:43;12.50;;;5.77;;
75787;SDS011;64406;50.024;14.492;2023-03-12T00:26:11;13.77;;;5.53;;
75787;SDS011;64406;50.024;14.492;2023-03-12T00:28:38;14.30;;;6.00;;
75787;SDS011;64406;50.024;14.492;2023-03-12T00:31:12;12.90;;;5.50;;
75787;SDS011;64406;50.024;14.492;2023-03-12T00:33:48;13.53;;;5.97;;
75787;SDS011;64406;50.024;14.492;2023-03-12T00:36:15;13.77;;;5.77;;
75787;SDS011;64406;50.024;14.492;2023-03-12T00:38:44;10.93;;;5.30;;
75787;SDS011;64406;50.024;14.492;2023-03-12T00:41:10;11.37;;;7.00;;
75787;SDS011;64406;50.024;14.492;2023-03-12T00:43:35;12.23;;;5.00;;
75787;SDS011;64406;50.024;14.492;2023-03-12T00:46:01;13.50;;;5.73;;
75787;SDS011;64406;50.024;14.492;2023-03-12T00:48:27;17.40;;;6.80;;
75787;SDS011;64406;50.024;14.492;2023-03-12T00:50:52;10.97;;;6.10;;
75787;SDS011;64406;50.024;14.492;2023-03-12T00:53:18;15.10;;;5.87;;
75787;SDS011;64406;50.024;14.492;2023-03-12T00:55:44;14.50;;;6.10;;
75787;SDS011;64406;50.024;14.492;2023-03-12T00:58:09;11.40;;;6.10;;
75787;SDS011;64406;50.024;14.492;2023-03-12T01:00:35;11.60;;;5.47;;
75787;SDS011;64406;50.024;14.492;2023-03-12T01:03:01;16.50;;;6.27;;
75787;SDS011;64406;50.024;14.492;2023-03-12T01:05:26;13.97;;;6.17;;
75787;SDS011;64406;50.024;14.492;2023-03-12T01:07:52;10.80;;;5.80;;
75787;SDS011;64406;50.024;14.492;2023-03-12T01:10:19;8.90;;;5.73;;
75787;SDS011;64406;50.024;14.492;2023-03-12T01:12:46;11.57;;;5.13;;
75787;SDS011;64406;50.024;14.492;2023-03-12T01:15:13;11.00;;;5.80;;
75787;SDS011;64406;50.024;14.492;2023-03-12T01:17:41;8.70;;;4.30;;
75787;SDS011;64406;50.024;14.492;2023-03-12T01:20:07;10.83;;;5.10;;
75787;SDS011;64406;50.024;14.492;2023-03-12T01:22:35;8.87;;;4.73;;
75787;SDS011;64406;50.024;14.492;2023-03-12T01:25:01;7.80;;;4.87;;
75787;SDS011;64406;50.024;14.492;2023-03-12T01:27:28;10.30;;;4.87;;
75787;SDS011;64406;50.024;14.492;2023-03-12T01:29:53;10.60;;;5.20;;
75787;SDS011;64406;50.024;14.492;2023-03-12T01:32:20;11.47;;;5.60;;
75787;SDS011;64406;50.024;14.492;2023-03-12T01:34:45;8.13;;;4.57;;
75787;SDS011;64406;50.024;14.492;2023-03-12T01:37:12;8.73;;;4.60;;
75787;SDS011;64406;50.024;14.492;2023-03-12T01:39:38;10.33;;;4.63;;
75787;SDS011;64406;50.024;14.492;2023-03-12T01:42:03;10.13;;;5.23;;
75787;SDS011;64406;50.024;14.492;2023-03-12T01:44:29;7.70;;;4.33;;
75787;SDS011;64406;50.024;14.492;2023-03-12T01:46:55;7.83;;;4.57;;
75787;SDS011;64406;50.024;14.492;2023-03-12T01:49:31;8.87;;;5.13;;
75787;SDS011;64406;50.024;14.492;2023-03-12T01:54:34;11.73;;;4.83;;
75787;SDS011;64406;50.024;14.492;2023-03-12T01:57:09;8.30;;;4.63;;
75787;SDS011;64406;50.024;14.492;2023-03-12T01:59:49;14.87;;;5.73;;
75787;SDS011;64406;50.024;14.492;2023-03-12T02:02:23;9.83;;;5.23;;
75787;SDS011;64406;50.024;14.492;2023-03-12T02:04:51;8.63;;;4.93;;
75787;SDS011;64406;50.024;14.492;2023-03-12T02:07:32;9.67;;;5.53;;
75787;SDS011;64406;50.024;14.492;2023-03-12T02:09:58;11.23;;;4.93;;
75787;SDS011;64406;50.024;14.492;2023-03-12T02:12:25;15.40;;;4.53;;
75787;SDS011;64406;50.024;14.492;2023-03-12T02:14:50;8.53;;;4.33;;
75787;SDS011;64406;50.024;14.492;2023-03-12T02:17:16;10.70;;;4.43;;
75787;SDS011;64406;50.024;14.492;2023-03-12T02:22:10;11.43;;;4.90;;
75787;SDS011;64406;50.024;14.492;2023-03-12T02:27:41;11.63;;;5.00;;
75787;SDS011;64406;50.024;14.492;2023-03-12T02:30:07;8.80;;;4.37;;
75787;SDS011;64406;50.024;14.492;2023-03-12T02:32:40;8.70;;;4.67;;
75787;SDS011;64406;50.024;14.492;2023-03-12T02:35:07;11.87;;;5.30;;
75787;SDS011;64406;50.024;14.492;2023-03-12T02:37:34;10.17;;;4.97;;
75787;SDS011;64406;50.024;14.492;2023-03-12T02:40:17;7.43;;;4.70;;
75787;SDS011;64406;50.024;14.492;2023-03-12T02:42:49;6.20;;;3.40;;
75787;SDS011;64406;50.024;14.492;2023-03-12T02:45:15;17.27;;;4.43;;
75787;SDS011;64406;50.024;14.492;2023-03-12T02:47:44;9.70;;;4.20;;
75787;SDS011;64406;50.024;14.492;2023-03-12T02:50:09;8.27;;;4.10;;
75787;SDS011;64406;50.024;14.492;2023-03-12T02:52:36;11.63;;;4.80;;
75787;SDS011;64406;50.024;14.492;2023-03-12T02:55:05;10.80;;;5.03;;
75787;SDS011;64406;50.024;14.492;2023-03-12T02:57:32;6.43;;;3.90;;
75787;SDS011;64406;50.024;14.492;2023-03-12T02:59:57;10.67;;;4.63;;
75787;SDS011;64406;50.024;14.492;2023-03-12T03:02:23;7.83;;;4.13;;
75787;SDS011;64406;50.024;14.492;2023-03-12T03:04:49;10.90;;;4.23;;
75787;SDS011;64406;50.024;14.492;2023-03-12T03:07:15;8.80;;;4.00;;
75787;SDS011;64406;50.024;14.492;2023-03-12T03:09:40;9.17;;;4.13;;
75787;SDS011;64406;50.024;14.492;2023-03-12T03:12:06;8.93;;;4.57;;
75787;SDS011;64406;50.024;14.492;2023-03-12T03:14:32;14.00;;;4.33;;
75787;SDS011;64406;50.024;14.492;2023-03-12T03:16:58;6.70;;;3.70;;
75787;SDS011;64406;50.024;14.492;2023-03-12T03:19:23;5.80;;;3.57;;
75787;SDS011;64406;50.024;14.492;2023-03-12T03:21:49;7.07;;;4.33;;
75787;SDS011;64406;50.024;14.492;2023-03-12T03:24:14;6.80;;;3.60;;
75787;SDS011;64406;50.024;14.492;2023-03-12T03:26:41;6.27;;;3.67;;
75787;SDS011;64406;50.024;14.492;2023-03-12T03:29:06;6.97;;;3.90;;
75787;SDS011;64406;50.024;14.492;2023-03-12T03:31:32;5.37;;;3.20;;
75787;SDS011;64406;50.024;14.492;2023-03-12T03:33:58;8.57;;;4.23;;
75787;SDS011;64406;50.024;14.492;2023-03-12T03:36:24;10.73;;;4.00;;
75787;SDS011;64406;50.024;14.492;2023-03-12T03:38:49;14.43;;;4.87;;
75787;SDS011;64406;50.024;14.492;2023-03-12T03:41:16;6.67;;;3.50;;
75787;SDS011;64406;50.024;14.492;2023-03-12T03:43:42;7.47;;;3.70;;
75787;SDS011;64406;50.024;14.492;2023-03-12T03:46:08;6.90;;;3.60;;
75787;SDS011;64406;50.024;14.492;2023-03-12T03:48:36;5.53;;;3.23;;
75787;SDS011;64406;50.024;14.492;2023-03-12T03:51:04;7.87;;;3.63;;
75787;SDS011;64406;50.024;14.492;2023-03-12T03:53:30;8.30;;;3.70;;
75787;SDS011;64406;50.024;14.492;2023-03-12T03:55:56;6.73;;;3.73;;
75787;SDS011;64406;50.024;14.492;2023-03-12T03:58:22;7.53;;;3.07;;
75787;SDS011;64406;50.024;14.492;2023-03-12T04:00:48;8.53;;;4.00;;
75787;SDS011;64406;50.024;14.492;2023-03-12T04:03:14;6.50;;;3.10;;
75787;SDS011;64406;50.024;14.492;2023-03-12T04:05:40;5.37;;;3.70;;
75787;SDS011;64406;50.024;14.492;2023-03-12T04:08:09;4.43;;;3.07;;
75787;SDS011;64406;50.024;14.492;2023-03-12T04:10:36;6.77;;;3.60;;
75787;SDS011;64406;50.024;14.492;2023-03-12T04:13:02;8.63;;;3.97;;
75787;SDS011;64406;50.024;14.492;2023-03-12T04:15:28;6.77;;;3.23;;
75787;SDS011;64406;50.024;14.492;2023-03-12T04:17:53;7.97;;;4.63;;
75787;SDS011;64406;50.024;14.492;2023-03-12T04:20:19;8.43;;;4.00;;
75787;SDS011;64406;50.024;14.492;2023-03-12T04:22:45;11.10;;;4.00;;
75787;SDS011;64406;50.024;14.492;2023-03-12T04:25:10;5.87;;;3.57;;
75787;SDS011;64406;50.024;14.492;2023-03-12T04:27:36;5.80;;;3.23;;
75787;SDS011;64406;50.024;14.492;2023-03-12T04:30:02;9.53;;;4.03;;
75787;SDS011;64406;50.024;14.492;2023-03-12T04:32:28;8.33;;;4.20;;
75787;SDS011;64406;50.024;14.492;2023-03-12T04:34:54;12.23;;;4.20;;
75787;SDS011;64406;50.024;14.492;2023-03-12T04:37:20;9.60;;;4.33;;
75787;SDS011;64406;50.024;14.492;2023-03-12T04:39:47;13.60;;;4.40;;
75787;SDS011;64406;50.024;14.492;2023-03-12T04:42:13;7.80;;;4.67;;
75787;SDS011;64406;50.024;14.492;2023-03-12T04:44:39;6.97;;;3.90;;
75787;SDS011;64406;50.024;14.492;2023-03-12T04:47:05;9.80;;;3.97;;
75787;SDS011;64406;50.024;14.492;2023-03-12T04:49:31;7.43;;;3.33;;
75787;SDS011;64406;50.024;14.492;2023-03-12T04:51:56;7.17;;;4.50;;
75787;SDS011;64406;50.024;14.492;2023-03-12T04:54:22;10.97;;;4.10;;
75787;SDS011;64406;50.024;14.492;2023-03-12T04:56:48;8.70;;;3.93;;
75787;SDS011;64406;50.024;14.492;2023-03-12T04:59:17;6.80;;;3.97;;
75787;SDS011;64406;50.024;14.492;2023-03-12T05:01:42;7.60;;;3.63;;
75787;SDS011;64406;50.024;14.492;2023-03-12T05:04:09;10.30;;;4.20;;
75787;SDS011;64406;50.024;14.492;2023-03-12T05:06:34;6.00;;;3.03;;
75787;SDS011;64406;50.024;14.492;2023-03-12T05:09:00;6.57;;;3.73;;
75787;SDS011;64406;50.024;14.492;2023-03-12T05:11:26;7.13;;;3.90;;
75787;SDS011;64406;50.024;14.492;2023-03-12T05:13:52;5.90;;;3.60;;
75787;SDS011;64406;50.024;14.492;2023-03-12T05:16:18;8.60;;;3.50;;
75787;SDS011;64406;50.024;14.492;2023-03-12T05:18:44;8.87;;;3.57;;
75787;SDS011;64406;50.024;14.492;2023-03-12T05:21:11;12.40;;;3.80;;
75787;SDS011;64406;50.024;14.492;2023-03-12T05:23:39;7.83;;;4.00;;
75787;SDS011;64406;50.024;14.492;2023-03-12T05:26:07;9.13;;;3.70;;
75787;SDS011;64406;50.024;14.492;2023-03-12T05:29:00;8.27;;;3.30;;
75787;SDS011;64406;50.024;14.492;2023-03-12T05:31:26;8.07;;;3.70;;
75787;SDS011;64406;50.024;14.492;2023-03-12T05:33:52;6.73;;;3.20;;
75787;SDS011;64406;50.024;14.492;2023-03-12T05:36:19;4.30;;;3.17;;
75787;SDS011;64406;50.024;14.492;2023-03-12T05:38:45;6.27;;;3.63;;
75787;SDS011;64406;50.024;14.492;2023-03-12T05:41:17;8.67;;;3.97;;
75787;SDS011;64406;50.024;14.492;2023-03-12T05:43:45;10.37;;;4.03;;
75787;SDS011;64406;50.024;14.492;2023-03-12T05:46:11;8.13;;;4.33;;
75787;SDS011;64406;50.024;14.492;2023-03-12T05:48:37;7.27;;;4.23;;
75787;SDS011;64406;50.024;14.492;2023-03-12T05:51:03;9.73;;;5.17;;
75787;SDS011;64406;50.024;14.492;2023-03-12T05:53:29;7.40;;;4.53;;
75787;SDS011;64406;50.024;14.492;2023-03-12T05:55:54;9.00;;;4.00;;
75787;SDS011;64406;50.024;14.492;2023-03-12T05:58:26;9.60;;;4.37;;
75787;SDS011;64406;50.024;14.492;2023-03-12T06:00:51;8.80;;;4.77;;
75787;SDS011;64406;50.024;14.492;2023-03-12T06:03:17;9.57;;;4.07;;
75787;SDS011;64406;50.024;14.492;2023-03-12T06:05:43;10.80;;;4.93;;
75787;SDS011;64406;50.024;14.492;2023-03-12T06:08:08;8.67;;;4.00;;
75787;SDS011;64406;50.024;14.492;2023-03-12T06:10:36;6.07;;;4.30;;
75787;SDS011;64406;50.024;14.492;2023-03-12T06:13:03;14.67;;;4.83;;
75787;SDS011;64406;50.024;14.492;2023-03-12T06:15:29;6.27;;;3.93;;
75787;SDS011;64406;50.024;14.492;2023-03-12T06:17:55;7.13;;;4.00;;
75787;SDS011;64406;50.024;14.492;2023-03-12T06:20:21;7.50;;;3.63;;
75787;SDS011;64406;50.024;14.492;2023-03-12T06:22:48;6.60;;;3.50;;
75787;SDS011;64406;50.024;14.492;2023-03-12T06:25:14;6.33;;;3.27;;
75787;SDS011;64406;50.024;14.492;2023-03-12T06:27:40;5.90;;;3.47;;
75787;SDS011;64406;50.024;14.492;2023-03-12T06:30:07;7.80;;;4.00;;
75787;SDS011;64406;50.024;14.492;2023-03-12T06:32:33;6.27;;;4.43;;
75787;SDS011;64406;50.024;14.492;2023-03-12T06:34:59;5.87;;;3.70;;
75787;SDS011;64406;50.024;14.492;2023-03-12T06:37:26;5.23;;;3.17;;
75787;SDS011;64406;50.024;14.492;2023-03-12T06:39:52;4.13;;;3.03;;
75787;SDS011;64406;50.024;14.492;2023-03-12T06:42:18;6.10;;;3.13;;
75787;SDS011;64406;50.024;14.492;2023-03-12T06:44:45;6.10;;;3.13;;
75787;SDS011;64406;50.024;14.492;2023-03-12T06:47:10;4.53;;;3.10;;
75787;SDS011;64406;50.024;14.492;2023-03-12T06:49:36;8.13;;;3.53;;
75787;SDS011;64406;50.024;14.492;2023-03-12T06:52:03;8.53;;;3.70;;
75787;SDS011;64406;50.024;14.492;2023-03-12T06:54:30;7.17;;;4.23;;
75787;SDS011;64406;50.024;14.492;2023-03-12T06:56:55;9.07;;;3.83;;
75787;SDS011;64406;50.024;14.492;2023-03-12T06:59:23;10.27;;;4.00;;
75787;SDS011;64406;50.024;14.492;2023-03-12T07:01:49;8.47;;;4.03;;
75787;SDS011;64406;50.024;14.492;2023-03-12T07:04:15;7.27;;;3.73;;
75787;SDS011;64406;50.024;14.492;2023-03-12T07:06:41;8.80;;;3.50;;
75787;SDS011;64406;50.024;14.492;2023-03-12T07:09:07;6.80;;;3.63;;
75787;SDS011;64406;50.024;14.492;2023-03-12T07:11:36;7.97;;;3.20;;
75787;SDS011;64406;50.024;14.492;2023-03-12T07:14:01;7.40;;;3.63;;
75787;SDS011;64406;50.024;14.492;2023-03-12T07:16:27;7.23;;;3.77;;
75787;SDS011;64406;50.024;14.492;2023-03-12T07:18:53;6.60;;;3.47;;
75787;SDS011;64406;50.024;14.492;2023-03-12T07:21:19;7.67;;;3.17;;
75787;SDS011;64406;50.024;14.492;2023-03-12T07:23:48;12.60;;;4.13;;
75787;SDS011;64406;50.024;14.492;2023-03-12T07:26:14;9.27;;;4.40;;
75787;SDS011;64406;50.024;14.492;2023-03-12T07:28:41;10.37;;;3.23;;
75787;SDS011;64406;50.024;14.492;2023-03-12T07:31:06;4.47;;;2.67;;
75787;SDS011;64406;50.024;14.492;2023-03-12T07:33:32;7.17;;;4.00;;
75787;SDS011;64406;50.024;14.492;2023-03-12T07:35:58;6.83;;;3.10;;
75787;SDS011;64406;50.024;14.492;2023-03-12T07:38:24;4.63;;;3.40;;
75787;SDS011;64406;50.024;14.492;2023-03-12T07:40:50;6.13;;;3.13;;
75787;SDS011;64406;50.024;14.492;2023-03-12T07:43:17;8.87;;;3.33;;
75787;SDS011;64406;50.024;14.492;2023-03-12T07:45:44;7.53;;;3.23;;
75787;SDS011;64406;50.024;14.492;2023-03-12T07:48:10;7.37;;;2.67;;
75787;SDS011;64406;50.024;14.492;2023-03-12T07:50:36;5.40;;;2.33;;
75787;SDS011;64406;50.024;14.492;2023-03-12T07:53:03;3.93;;;2.33;;
75787;SDS011;64406;50.024;14.492;2023-03-12T07:55:31;5.03;;;2.63;;
75787;SDS011;64406;50.024;14.492;2023-03-12T07:57:57;7.00;;;2.23;;
75787;SDS011;64406;50.024;14.492;2023-03-12T08:00:23;3.87;;;2.40;;
75787;SDS011;64406;50.024;14.492;2023-03-12T08:02:50;6.80;;;2.43;;
75787;SDS011;64406;50.024;14.492;2023-03-12T08:05:16;6.57;;;2.40;;
75787;SDS011;64406;50.024;14.492;2023-03-12T08:07:42;4.90;;;2.50;;
75787;SDS011;64406;50.024;14.492;2023-03-12T08:10:07;6.03;;;2.77;;
75787;SDS011;64406;50.024;14.492;2023-03-12T08:12:35;4.60;;;2.67;;
75787;SDS011;64406;50.024;14.492;2023-03-12T08:15:04;7.23;;;2.83;;
75787;SDS011;64406;50.024;14.492;2023-03-12T08:17:32;5.37;;;2.50;;
75787;SDS011;64406;50.024;14.492;2023-03-12T08:19:58;4.80;;;2.67;;
75787;SDS011;64406;50.024;14.492;2023-03-12T08:22:24;4.70;;;2.43;;
75787;SDS011;64406;50.024;14.492;2023-03-12T08:24:49;8.93;;;2.53;;
75787;SDS011;64406;50.024;14.492;2023-03-12T08:27:15;4.73;;;2.00;;
75787;SDS011;64406;50.024;14.492;2023-03-12T08:29:40;4.30;;;2.57;;
75787;SDS011;64406;50.024;14.492;2023-03-12T08:32:07;7.10;;;2.80;;
75787;SDS011;64406;50.024;14.492;2023-03-12T08:34:34;7.17;;;2.30;;
75787;SDS011;64406;50.024;14.492;2023-03-12T08:37:02;7.07;;;2.43;;
75787;SDS011;64406;50.024;14.492;2023-03-12T08:39:28;6.20;;;2.57;;
75787;SDS011;64406;50.024;14.492;2023-03-12T08:41:56;5.27;;;2.20;;
75787;SDS011;64406;50.024;14.492;2023-03-12T08:44:24;8.27;;;2.10;;
75787;SDS011;64406;50.024;14.492;2023-03-12T08:46:50;4.50;;;2.20;;
75787;SDS011;64406;50.024;14.492;2023-03-12T08:49:16;4.30;;;2.60;;
75787;SDS011;64406;50.024;14.492;2023-03-12T08:51:44;4.73;;;2.13;;
75787;SDS011;64406;50.024;14.492;2023-03-12T08:54:09;3.23;;;1.90;;
75787;SDS011;64406;50.024;14.492;2023-03-12T08:56:35;9.77;;;1.90;;
75787;SDS011;64406;50.024;14.492;2023-03-12T08:59:08;5.33;;;1.80;;
75787;SDS011;64406;50.024;14.492;2023-03-12T09:01:35;3.13;;;1.50;;
75787;SDS011;64406;50.024;14.492;2023-03-12T09:04:01;2.73;;;1.43;;
75787;SDS011;64406;50.024;14.492;2023-03-12T09:06:28;3.00;;;1.83;;
75787;SDS011;64406;50.024;14.492;2023-03-12T09:08:54;3.43;;;1.90;;
75787;SDS011;64406;50.024;14.492;2023-03-12T09:11:20;2.77;;;1.90;;
75787;SDS011;64406;50.024;14.492;2023-03-12T09:13:46;5.90;;;2.07;;
75787;SDS011;64406;50.024;14.492;2023-03-12T09:16:11;3.30;;;2.07;;
75787;SDS011;64406;50.024;14.492;2023-03-12T09:18:37;2.77;;;1.80;;
75787;SDS011;64406;50.024;14.492;2023-03-12T09:21:03;3.40;;;1.53;;
75787;SDS011;64406;50.024;14.492;2023-03-12T09:23:29;5.40;;;1.57;;
75787;SDS011;64406;50.024;14.492;2023-03-12T09:25:55;4.15;;;1.40;;
75787;SDS011;64406;50.024;14.492;2023-03-12T09:28:21;4.00;;;1.65;;
75787;SDS011;64406;50.024;14.492;2023-03-12T09:30:48;7.68;;;2.50;;
75787;SDS011;64406;50.024;14.492;2023-03-12T09:33:14;3.65;;;2.08;;
75787;SDS011;64406;50.024;14.492;2023-03-12T09:35:44;2.63;;;1.67;;
75787;SDS011;64406;50.024;14.492;2023-03-12T09:38:13;2.70;;;1.70;;
75787;SDS011;64406;50.024;14.492;2023-03-12T09:40:42;2.38;;;1.52;;
75787;SDS011;64406;50.024;14.492;2023-03-12T09:43:12;3.30;;;1.53;;
75787;SDS011;64406;50.024;14.492;2023-03-12T09:45:48;3.00;;;1.27;;
75787;SDS011;64406;50.024;14.492;2023-03-12T09:48:16;6.68;;;1.80;;
75787;SDS011;64406;50.024;14.492;2023-03-12T09:50:47;3.58;;;1.83;;
75787;SDS011;64406;50.024;14.492;2023-03-12T09:55:52;4.28;;;1.60;;
75787;SDS011;64406;50.024;14.492;2023-03-12T09:58:31;4.73;;;1.43;;
75787;SDS011;64406;50.024;14.492;2023-03-12T10:03:51;1.63;;;1.30;;
75787;SDS011;64406;50.024;14.492;2023-03-12T10:06:38;3.42;;;1.33;;
75787;SDS011;64406;50.024;14.492;2023-03-12T10:12:02;4.35;;;1.85;;
75787;SDS011;64406;50.024;14.492;2023-03-12T10:14:51;5.35;;;1.77;;
75787;SDS011;64406;50.024;14.492;2023-03-12T10:28:42;3.58;;;1.92;;
75787;SDS011;64406;50.024;14.492;2023-03-12T10:31:20;2.63;;;1.63;;
75787;SDS011;64406;50.024;14.492;2023-03-12T10:33:51;5.78;;;1.42;;
75787;SDS011;64406;50.024;14.492;2023-03-12T10:36:25;3.17;;;1.73;;
75787;SDS011;64406;50.024;14.492;2023-03-12T10:38:58;3.85;;;1.67;;
75787;SDS011;64406;50.024;14.492;2023-03-12T10:41:26;7.47;;;1.92;;
75787;SDS011;64406;50.024;14.492;2023-03-12T10:43:54;5.30;;;1.77;;
75787;SDS011;64406;50.024;14.492;2023-03-12T10:46:36;6.47;;;1.90;;
75787;SDS011;64406;50.024;14.492;2023-03-12T10:52:02;5.20;;;1.58;;
75787;SDS011;64406;50.024;14.492;2023-03-12T10:54:44;3.03;;;1.98;;
75787;SDS011;64406;50.024;14.492;2023-03-12T10:57:14;3.10;;;2.20;;
75787;SDS011;64406;50.024;14.492;2023-03-12T10:59:45;4.40;;;1.52;;
75787;SDS011;64406;50.024;14.492;2023-03-12T11:02:45;5.70;;;2.15;;
75787;SDS011;64406;50.024;14.492;2023-03-12T11:05:18;6.43;;;1.80;;
75787;SDS011;64406;50.024;14.492;2023-03-12T11:07:49;1.75;;;1.30;;
75787;SDS011;64406;50.024;14.492;2023-03-12T11:10:17;4.18;;;2.25;;
75787;SDS011;64406;50.024;14.492;2023-03-12T11:13:20;6.20;;;1.90;;
75787;SDS011;64406;50.024;14.492;2023-03-12T11:15:47;3.63;;;2.20;;
75787;SDS011;64406;50.024;14.492;2023-03-12T11:18:19;2.33;;;1.52;;
75787;SDS011;64406;50.024;14.492;2023-03-12T11:20:53;5.03;;;2.10;;
75787;SDS011;64406;50.024;14.492;2023-03-12T11:26:28;3.20;;;1.90;;
75787;SDS011;64406;50.024;14.492;2023-03-12T11:34:41;4.72;;;2.10;;
75787;SDS011;64406;50.024;14.492;2023-03-12T11:37:17;4.22;;;1.88;;
75787;SDS011;64406;50.024;14.492;2023-03-12T11:40:14;3.58;;;1.75;;
75787;SDS011;64406;50.024;14.492;2023-03-12T11:42:52;2.75;;;1.85;;
75787;SDS011;64406;50.024;14.492;2023-03-12T11:56:48;5.40;;;2.00;;
75787;SDS011;64406;50.024;14.492;2023-03-12T11:59:34;5.07;;;2.00;;
75787;SDS011;64406;50.024;14.492;2023-03-12T12:19:24;4.93;;;1.90;;
75787;SDS011;64406;50.024;14.492;2023-03-12T12:22:38;5.00;;;2.00;;
75787;SDS011;64406;50.024;14.492;2023-03-12T12:30:20;5.35;;;2.10;;
75787;SDS011;64406;50.024;14.492;2023-03-12T12:35:49;6.57;;;2.53;;
75787;SDS011;64406;50.024;14.492;2023-03-12T12:38:28;3.17;;;2.28;;
75787;SDS011;64406;50.024;14.492;2023-03-12T12:43:41;4.55;;;2.47;;
75787;SDS011;64406;50.024;14.492;2023-03-12T12:46:27;6.65;;;2.53;;
75787;SDS011;64406;50.024;14.492;2023-03-12T12:49:21;3.47;;;2.20;;
75787;SDS011;64406;50.024;14.492;2023-03-12T12:52:06;5.55;;;2.40;;
75787;SDS011;64406;50.024;14.492;2023-03-12T13:02:45;3.55;;;1.85;;
75787;SDS011;64406;50.024;14.492;2023-03-12T13:07:51;5.65;;;2.10;;
75787;SDS011;64406;50.024;14.492;2023-03-12T13:12:59;5.85;;;2.22;;
75787;SDS011;64406;50.024;14.492;2023-03-12T13:15:36;4.85;;;2.28;;
75787;SDS011;64406;50.024;14.492;2023-03-12T13:20:41;4.88;;;2.20;;
75787;SDS011;64406;50.024;14.492;2023-03-12T13:26:02;5.93;;;2.30;;
75787;SDS011;64406;50.024;14.492;2023-03-12T13:33:50;2.97;;;2.22;;
75787;SDS011;64406;50.024;14.492;2023-03-12T13:36:19;5.70;;;2.22;;
75787;SDS011;64406;50.024;14.492;2023-03-12T13:38:52;5.10;;;2.17;;
75787;SDS011;64406;50.024;14.492;2023-03-12T13:41:45;4.10;;;1.80;;
75787;SDS011;64406;50.024;14.492;2023-03-12T13:49:39;3.60;;;2.15;;
75787;SDS011;64406;50.024;14.492;2023-03-12T13:57:43;2.42;;;1.70;;
75787;SDS011;64406;50.024;14.492;2023-03-12T14:03:28;4.63;;;2.20;;
75787;SDS011;64406;50.024;14.492;2023-03-12T14:17:11;4.00;;;2.08;;
75787;SDS011;64406;50.024;14.492;2023-03-12T14:19:42;4.75;;;2.20;;
75787;SDS011;64406;50.024;14.492;2023-03-12T14:22:11;6.88;;;2.40;;
75787;SDS011;64406;50.024;14.492;2023-03-12T14:24:39;4.57;;;2.15;;
75787;SDS011;64406;50.024;14.492;2023-03-12T14:27:19;5.35;;;2.13;;
75787;SDS011;64406;50.024;14.492;2023-03-12T14:32:34;5.90;;;1.92;;
75787;SDS011;64406;50.024;14.492;2023-03-12T14:35:07;5.78;;;2.15;;
75787;SDS011;64406;50.024;14.492;2023-03-12T14:40:40;3.35;;;2.42;;
75787;SDS011;64406;50.024;14.492;2023-03-12T14:45:52;10.25;;;3.05;;
75787;SDS011;64406;50.024;14.492;2023-03-12T14:48:20;4.25;;;2.20;;
75787;SDS011;64406;50.024;14.492;2023-03-12T14:50:48;5.53;;;1.98;;
75787;SDS011;64406;50.024;14.492;2023-03-12T14:53:29;3.83;;;1.90;;
75787;SDS011;64406;50.024;14.492;2023-03-12T14:56:42;5.50;;;2.00;;
75787;SDS011;64406;50.024;14.492;2023-03-12T14:58:53;3.88;;;2.17;;
75787;SDS011;64406;50.024;14.492;2023-03-12T15:01:20;5.35;;;2.10;;
75787;SDS011;64406;50.024;14.492;2023-03-12T15:03:58;4.07;;;2.03;;
75787;SDS011;64406;50.024;14.492;2023-03-12T15:06:31;3.42;;;1.95;;
75787;SDS011;64406;50.024;14.492;2023-03-12T15:09:33;5.30;;;2.15;;
75787;SDS011;64406;50.024;14.492;2023-03-12T15:14:34;7.22;;;2.70;;
75787;SDS011;64406;50.024;14.492;2023-03-12T15:17:05;6.30;;;2.17;;
75787;SDS011;64406;50.024;14.492;2023-03-12T15:19:34;7.15;;;3.00;;
75787;SDS011;64406;50.024;14.492;2023-03-12T15:22:04;6.18;;;2.70;;
75787;SDS011;64406;50.024;14.492;2023-03-12T15:24:36;3.55;;;2.42;;
75787;SDS011;64406;50.024;14.492;2023-03-12T15:29:48;6.72;;;2.45;;
75787;SDS011;64406;50.024;14.492;2023-03-12T15:32:15;2.97;;;1.95;;
75787;SDS011;64406;50.024;14.492;2023-03-12T15:34:44;5.47;;;2.38;;
75787;SDS011;64406;50.024;14.492;2023-03-12T15:37:30;5.38;;;2.53;;
75787;SDS011;64406;50.024;14.492;2023-03-12T15:39:59;5.43;;;2.50;;
75787;SDS011;64406;50.024;14.492;2023-03-12T15:42:35;5.47;;;2.90;;
75787;SDS011;64406;50.024;14.492;2023-03-12T15:45:04;5.38;;;2.47;;
75787;SDS011;64406;50.024;14.492;2023-03-12T15:47:40;4.45;;;2.58;;
75787;SDS011;64406;50.024;14.492;2023-03-12T15:50:51;5.72;;;3.08;;
75787;SDS011;64406;50.024;14.492;2023-03-12T15:55:34;4.03;;;2.25;;
75787;SDS011;64406;50.024;14.492;2023-03-12T15:58:01;6.50;;;2.40;;
75787;SDS011;64406;50.024;14.492;2023-03-12T16:00:43;6.57;;;2.45;;
75787;SDS011;64406;50.024;14.492;2023-03-12T16:03:17;9.32;;;2.97;;
75787;SDS011;64406;50.024;14.492;2023-03-12T16:05:44;6.38;;;3.38;;
75787;SDS011;64406;50.024;14.492;2023-03-12T16:08:13;5.88;;;3.03;;
75787;SDS011;64406;50.024;14.492;2023-03-12T16:10:42;8.45;;;3.25;;
75787;SDS011;64406;50.024;14.492;2023-03-12T16:13:10;6.70;;;3.45;;
75787;SDS011;64406;50.024;14.492;2023-03-12T16:15:39;6.75;;;2.97;;
75787;SDS011;64406;50.024;14.492;2023-03-12T16:18:05;8.23;;;3.22;;
75787;SDS011;64406;50.024;14.492;2023-03-12T16:20:37;5.68;;;3.00;;
75787;SDS011;64406;50.024;14.492;2023-03-12T16:23:03;5.85;;;3.05;;
75787;SDS011;64406;50.024;14.492;2023-03-12T16:25:30;7.15;;;2.78;;
75787;SDS011;64406;50.024;14.492;2023-03-12T16:27:59;6.85;;;3.00;;
75787;SDS011;64406;50.024;14.492;2023-03-12T16:30:28;8.40;;;3.63;;
75787;SDS011;64406;50.024;14.492;2023-03-12T16:33:02;11.18;;;4.07;;
75787;SDS011;64406;50.024;14.492;2023-03-12T16:35:29;8.00;;;3.53;;
75787;SDS011;64406;50.024;14.492;2023-03-12T16:37:56;4.65;;;2.35;;
75787;SDS011;64406;50.024;14.492;2023-03-12T16:40:25;7.00;;;3.08;;
75787;SDS011;64406;50.024;14.492;2023-03-12T16:42:52;6.18;;;3.35;;
75787;SDS011;64406;50.024;14.492;2023-03-12T16:45:19;6.43;;;3.10;;
75787;SDS011;64406;50.024;14.492;2023-03-12T16:47:47;6.70;;;3.30;;
75787;SDS011;64406;50.024;14.492;2023-03-12T16:50:21;9.60;;;3.67;;
75787;SDS011;64406;50.024;14.492;2023-03-12T16:52:47;9.27;;;3.95;;
75787;SDS011;64406;50.024;14.492;2023-03-12T16:55:20;8.25;;;3.40;;
75787;SDS011;64406;50.024;14.492;2023-03-12T16:57:48;5.15;;;3.03;;
75787;SDS011;64406;50.024;14.492;2023-03-12T17:00:18;6.63;;;3.50;;
75787;SDS011;64406;50.024;14.492;2023-03-12T17:02:50;7.90;;;3.20;;
75787;SDS011;64406;50.024;14.492;2023-03-12T17:05:22;6.93;;;3.70;;
75787;SDS011;64406;50.024;14.492;2023-03-12T17:07:48;6.75;;;3.22;;
75787;SDS011;64406;50.024;14.492;2023-03-12T17:10:14;7.10;;;3.08;;